Opa Locka, FL (33054)

4:24 PM EDT on August 04, 2015 (GMT -0400)
Opa-Locka | | Change Station
CLOSE
Current Station
Personal Weather Station
Location: Opa-locka, FL
Elevation: 10 ft
Nearby Weather Stations

Elev 10 ft 25.90 °N, 80.27 °W | Updated 19 seconds ago

Mostly Cloudy
Mostly Cloudy
90.1 °F
Feels Like 101 °F
N
10.3
Wind Variable Wind from ESE
Gusts 12.3 mph

Today
High -- | Low -- °F
--% Chance of Precip.
Yesterday
High -- | Low -- °F
Precip. -- in
6:48 AM 8:05 PM
Waning Gibbous, 75% visible
Pressure 30.06 in
Visibility 10.0 miles
Clouds Mostly Cloudy 4400 ft
Heat Index 101 °F
Dew Point 75 °F
Humidity 62%
Rainfall 0.00 in
Snow Depth Not available.
UV 3.0 out of 12
Pollen 3.00 out of 12
Air Quality Not available.
Flu Activity Not available.
METAR KOPF 041953Z 13008KT 10SM BKN044 32/22 A3005 RMK AO2 LTG DSNT W AND NW SLP177 T03220217

More Conditions Fewer Conditions

Pressure 30.06 in
Visibility 10.0 miles
Clouds Mostly Cloudy 4400 ft
Heat Index 101 °F
Dew Point 75 °F
Humidity 62%
Rainfall 0.00 in
Snow Depth Not available.
UV 3.0 out of 12
Pollen 3.00 out of 12
Air Quality Not available.
Flu Activity Not available.
METAR KOPF 041953Z 13008KT 10SM BKN044 32/22 A3005 RMK AO2 LTG DSNT W AND NW SLP177 T03220217

More Conditions Fewer Conditions

Nowcast | as of 4:13 PM EDT on August 4, 2015

Showers and thunderstorms will affect the inland portions of Miami Dade...Broward and Palm Beach counties. These showers are nearly stationary and will produce brief downpours...gusty winds to near 30 mph and lightning strikes with the heaviest showers.

×

10-Day Weather Forecast

×

Almanac

Astronomy

Aug. 04, 2015 Rise Set
Actual Time
Civil Twilight
Nautical Twilight
Astronomical Twilight
Moon
Length of Visible Light
Length of Day
Tomorrow will be .
, % of the Moon is Illuminated

Today's Extremes

State Highs State Lows

Community

WunderPhotos

Upload Photos

1,843,963 photos uploaded!

WunderBlogs® & News

Nearby

Air Quality

  Air Quality AQ Index Pollutant
Not available.

Snow Depth

Station Depth Elevation

Earthquake Activity

City Distance Mag. Time & Date
Minimum magnitude displayed is 2.5.

Coastal Water Temperatures

Place Temperature

Stations

Nearby Weather Stations

Station Location Temp. Windchill Dew Point Humidity Wind Precip. Elev Updated Type